Terminal Aerodrome Forecast
Issued by NWS

Home | Current Version | Previous Version | Text Only | Print | Product List | Glossary On
Versions: 1 2 3 4 5 6 7 8 9 10 11 12 13 14 15 16
689
FTUS46 KSEW 160524
TAFPAE
TAF
KPAE 160524Z 1606/1706 VRB03KT P6SM SCT005 OVC020
      TEMPO 1606/1610 5SM -SHRA BR BKN005 OVC025
     FM161800 18005KT P6SM BKN025 OVC040=

USA.gov is the U.S. government's official web portal to all federal, state and local government web resources and services.